Latest Weather Observations for Bega

IDN60801

Issued at 1:03 pm EDT Monday 26 October 2020 (issued every 10 minutes, with the page automatically refreshed every 10 minutes)

About weather observations | Map of weather stations | Latest weather observations for NSW | Other Formats
Station Details ID: 069139 Name: BEGA AWS Lat: -36.67 Lon: 149.82 Height: 41.0 m
Data from the previous 72 hours. | See also: Recent months at Bega
Date/Time
EDT
Temp
°C
App
Temp
°C
Dew
Point
°C
Rel
Hum
%
Delta-T
°C
Wind Press
QNH
hPa
Press
MSL
hPa
Rain since
9am
mm
Dir  Spd
km/h
Gust
km/h
Spd
kts
Gust
kts
26/01:00pm 14.9 10.8 8.8 67 3.1 SSE 20 32 11 17 1024.0 1024.0 1.4
26/12:30pm 13.7 9.2 9.9 78 2.0 S 24 37 13 20 1024.2 1024.2 1.4
26/12:00pm 13.0 9.6 10.5 85 1.3 SSE 19 28 10 15 1024.7 1024.7 1.4
26/11:30am 11.9 10.8 10.6 92 0.7 SE 7 13 4 7 1025.0 1025.0 1.2
26/11:00am 12.2 7.5 9.2 82 1.5 S 24 32 13 17 1025.1 1025.1 0.4
26/10:30am 12.1 7.9 9.7 85 1.2 SSW 22 30 12 16 1025.0 1025.0 0.4
26/10:00am 12.2 6.9 8.5 78 1.8 S 26 35 14 19 1024.9 1024.9 0.2
26/09:30am 13.1 8.2 7.1 67 2.9 SSW 22 32 12 17 1024.7 1024.7 0.0
26/09:00am 12.4 8.2 7.3 71 2.5 SW 19 28 10 15 1024.5 1024.5 17.2
26/08:30am 11.8 7.6 7.5 75 2.1 SSW 19 24 10 13 1024.5 1024.5 17.2
26/08:00am 11.7 7.0 6.2 69 2.6 SW 20 30 11 16 1024.5 1024.5 17.2
26/07:30am 11.4 7.7 6.1 70 2.5 SW 15 20 8 11 1024.4 1024.4 17.2
26/07:00am 11.0 7.7 6.4 73 2.2 SW 13 17 7 9 1024.2 1024.2 17.2
26/06:30am 10.9 8.8 6.8 76 1.9 S 7 15 4 8 1024.1 1024.1 17.2
26/06:00am 11.1 7.5 6.8 75 2.0 SW 15 20 8 11 1023.5 1023.5 17.2
26/05:30am 10.9 7.4 7.2 78 1.8 SW 15 19 8 10 1023.2 1023.1 17.2
26/05:00am 10.8 7.8 7.7 81 1.5 SW 13 17 7 9 1023.1 1023.0 17.2
26/04:30am 10.5 9.0 8.4 87 1.0 WSW 6 9 3 5 1022.9 1022.8 17.2
26/04:00am 10.8 8.3 8.4 85 1.2 S 11 17 6 9 1023.0 1022.9 17.0
26/03:30am 10.5 7.5 7.9 84 1.3 SW 13 19 7 10 1022.6 1022.5 17.0
26/03:00am 10.3 5.8 8.4 88 0.9 SSW 22 33 12 18 1022.9 1022.8 17.0
26/02:30am 11.0 7.3 8.1 82 1.4 SSW 17 24 9 13 1022.9 1022.8 17.0
26/02:00am 11.0 7.0 8.2 83 1.4 SSW 19 24 10 13 1022.9 1022.8 17.0
26/01:30am 10.9 7.0 8.7 86 1.1 SSW 19 24 10 13 1023.2 1023.1 17.0
26/01:00am 10.7 8.0 9.1 90 0.8 SSW 13 17 7 9 1023.4 1023.4 17.0
26/12:30am 10.7 7.4 9.5 92 0.6 SSW 17 24 9 13 1023.5 1023.5 17.0
26/12:00am 10.7 6.8 9.5 92 0.6 SSW 20 30 11 16 1023.5 1023.5 16.8
 
Date/Time
EDT
Temp
°C
App
Temp
°C
Dew
Point
°C
Rel
Hum
%
Delta-T
°C
Wind Press
QNH
hPa
Press
MSL
hPa
Rain since
9am
mm
Dir  Spd
km/h
Gust
km/h
Spd
kts
Gust
kts
25/11:30pm 10.6 6.4 9.8 95 0.4 SW 22 32 12 17 1023.4 1023.4 16.8
25/11:00pm 10.8 6.3 9.9 94 0.5 SSW 24 35 13 19 1023.4 1023.4 16.8
25/10:30pm 11.0 6.6 10.4 96 0.3 SSW 24 33 13 18 1023.3 1023.3 16.6
25/10:00pm 11.0 7.0 10.5 97 0.3 SW 22 30 12 16 1023.1 1023.0 16.2
25/09:30pm 11.1 7.8 10.9 99 0.1 SW 19 26 10 14 1023.0 1022.9 15.8
25/09:00pm 11.5 9.4 11.3 99 0.1 SSW 13 20 7 11 1022.6 1022.5 13.6
25/08:30pm 12.1 9.4 11.8 98 0.2 S 17 26 9 14 1022.1 1022.0 9.6
25/08:00pm 12.2 8.5 11.6 96 0.3 SSE 22 33 12 18 1021.6 1021.5 7.2
25/07:30pm 12.3 9.0 11.7 96 0.3 SSE 20 32 11 17 1021.0 1020.9 5.6
25/07:00pm 12.7 9.6 12.2 97 0.3 SSE 20 35 11 19 1020.3 1020.2 3.2
25/06:30pm 12.8 11.1 12.3 97 0.3 S 13 17 7 9 1019.6 1019.5 1.4
25/06:00pm 13.4 10.1 11.5 88 1.0 S 20 32 11 17 1019.1 1019.0 0.6
25/05:30pm 14.7 13.7 12.2 85 1.4 S 9 13 5 7 1018.6 1018.5 0.4
25/05:00pm 14.9 12.6 11.9 82 1.6 SE 15 22 8 12 1018.2 1018.1 0.4
25/04:30pm 14.9 11.9 9.3 69 2.9 SSE 15 24 8 13 1017.9 1017.8 0.4
25/04:00pm 15.6 12.8 8.4 62 3.6 SW 13 19 7 10 1017.5 1017.4 0.4
25/03:30pm 15.6 12.9 8.8 64 3.5 SW 13 20 7 11 1017.5 1017.4 0.4
25/03:00pm 15.5 13.8 8.5 63 3.5 WSW 7 13 4 7 1017.6 1017.5 0.4
25/02:30pm 14.6 10.6 6.7 59 3.8 SSW 17 28 9 15 1017.8 1017.7 0.4
25/02:00pm 14.6 11.1 7.2 61 3.6 SSW 15 24 8 13 1017.8 1017.7 0.4
25/01:30pm 14.9 11.0 5.4 53 4.5 SSW 15 20 8 11 1017.5 1017.4 0.4
25/01:00pm 14.9 11.0 7.0 59 3.9 SSW 17 26 9 14 1017.2 1017.1 0.4
25/12:30pm 14.7 9.9 5.8 55 4.3 SW 20 30 11 16 1017.0 1016.9 0.4
25/12:00pm 14.9 10.6 5.1 52 4.6 WSW 17 24 9 13 1017.1 1017.0 0.4
25/11:30am 14.4 10.3 6.3 58 3.9 SW 17 22 9 12 1017.0 1016.9 0.4
25/11:00am 13.9 9.7 5.8 58 3.8 SW 17 30 9 16 1016.9 1016.8 0.4
25/10:30am 12.9 9.3 8.2 73 2.3 WSW 17 28 9 15 1016.9 1016.8 0.4
25/10:00am 13.0 8.1 5.2 59 3.6 WSW 20 32 11 17 1016.5 1016.4 0.0
25/09:30am 12.8 8.2 5.7 62 3.3 SW 19 28 10 15 1016.2 1016.1 0.0
25/09:00am 12.2 8.8 5.8 65 3.0 SW 13 20 7 11 1016.2 1016.1 13.8
25/08:30am 11.4 6.9 5.9 69 2.6 WSW 19 26 10 14 1015.8 1015.7 13.8
25/08:00am 11.8 8.2 5.0 63 3.1 WSW 13 20 7 11 1015.2 1015.2 13.8
25/07:30am 11.6 7.5 4.3 61 3.3 WSW 15 20 8 11 1014.5 1014.5 13.8
25/07:00am 10.7 7.8 4.6 66 2.7 W 9 13 5 7 1014.2 1014.2 13.8
25/06:30am 10.6 7.4 5.2 69 2.5 WSW 11 22 6 12 1013.7 1013.7 13.8
25/06:00am 11.1 6.9 3.6 60 3.3 WSW 15 24 8 13 1012.9 1012.9 13.8
25/05:30am 11.1 6.4 3.4 59 3.4 WSW 17 24 9 13 1012.5 1012.5 13.8
25/05:00am 11.0 6.0 3.8 61 3.2 WSW 19 28 10 15 1012.1 1012.1 13.8
25/04:30am 10.5 6.5 4.9 68 2.5 WSW 15 20 8 11 1011.8 1011.8 13.8
25/04:00am 10.6 6.9 4.7 67 2.7 SW 13 20 7 11 1011.7 1011.7 13.8
25/03:30am 11.2 7.0 5.7 69 2.6 WSW 17 24 9 13 1011.1 1011.1 13.6
25/03:00am 11.9 7.2 6.0 67 2.8 SW 20 28 11 15 1010.5 1010.5 13.6
25/02:30am 12.2 8.4 6.0 66 2.9 SW 15 22 8 12 1010.1 1010.1 13.6
25/02:00am 12.5 7.9 6.3 66 2.9 SW 20 28 11 15 1009.8 1009.8 13.6
25/01:30am 12.3 8.9 7.6 73 2.3 SSW 15 20 8 11 1009.6 1009.6 13.6
25/01:00am 12.4 9.9 8.3 76 2.0 SSW 11 15 6 8 1009.4 1009.4 13.6
25/12:30am 12.4 10.4 8.7 78 1.8 SSW 9 13 5 7 1009.3 1009.3 13.6
25/12:00am 12.3 10.8 9.1 81 1.6 S 7 9 4 5 1009.1 1009.1 13.6
 
Date/Time
EDT
Temp
°C
App
Temp
°C
Dew
Point
°C
Rel
Hum
%
Delta-T
°C
Wind Press
QNH
hPa
Press
MSL
hPa
Rain since
9am
mm
Dir  Spd
km/h
Gust
km/h
Spd
kts
Gust
kts
24/11:30pm 12.3 10.3 8.8 79 1.8 SW 9 13 5 7 1008.9 1008.9 13.6
24/11:00pm 12.4 9.9 8.3 76 2.0 SW 11 17 6 9 1008.8 1008.8 13.6
24/10:30pm 12.1 8.8 8.2 77 1.9 SW 15 20 8 11 1008.8 1008.8 13.6
24/10:00pm 12.4 9.6 8.7 78 1.9 SW 13 22 7 12 1008.4 1008.4 13.6
24/09:30pm 12.7 8.9 9.0 78 1.9 SW 19 24 10 13 1008.3 1008.3 13.6
24/09:00pm 13.5 9.5 9.0 74 2.3 SW 20 32 11 17 1007.8 1007.8 13.6
24/08:30pm 13.6 9.8 9.1 74 2.3 SW 19 24 10 13 1007.2 1007.2 13.6
24/08:00pm 13.3 10.0 9.7 79 1.9 SSW 17 22 9 12 1006.4 1006.4 13.6
24/07:30pm 13.6 9.5 10.2 80 1.8 SW 22 30 12 16 1005.7 1005.7 13.6
24/07:00pm 14.6 10.6 10.6 77 2.1 SSW 22 32 12 17 1005.0 1005.0 13.6
24/06:30pm 15.3 10.5 10.3 72 2.6 SW 26 35 14 19 1004.2 1004.2 13.6
24/06:00pm 15.7 14.2 13.0 84 1.5 S 13 15 7 8 1003.6 1003.6 13.6
24/05:30pm 16.0 14.3 13.5 85 1.4 S 15 26 8 14 1003.0 1002.9 13.6
24/05:00pm 16.5 14.5 14.0 85 1.4 SSW 17 28 9 15 1002.5 1002.4 13.6
24/04:30pm 16.7 15.7 15.6 93 0.6 SSE 15 20 8 11 1002.2 1002.1 13.4
24/04:00pm 17.3 15.4 16.8 97 0.3 ESE 22 37 12 20 1001.7 1001.6 13.4
24/03:30pm 18.1 19.6 17.5 96 0.4 SE 6 9 3 5 1001.6 1001.5 13.4
24/03:00pm 18.2 21.0 18.0 99 0.1 CALM 0 0 0 0 1001.2 1001.1 13.4
24/02:30pm 17.6 19.0 17.4 99 0.1 SE 6 7 3 4 1001.4 1001.3 13.4
24/02:00pm 17.3 19.4 17.1 99 0.1 SSW 2 7 1 4 1001.9 1001.8 12.8
24/01:30pm 17.5 18.3 17.3 99 0.1 S 9 11 5 6 1002.3 1002.2 11.8
24/01:00pm 18.1 16.9 17.1 94 0.6 SW 19 26 10 14 1001.5 1001.4 3.2
24/12:30pm 19.0 18.2 18.5 97 0.3 SW 20 32 11 17 1001.7 1001.6 2.4
24/12:00pm 19.2 21.3 19.0 99 0.1 SW 6 9 3 5 1001.4 1001.3 1.0
24/11:30am 19.0 20.9 18.5 97 0.3 S 6 7 3 4 1001.2 1001.1 0.6
24/11:00am 19.0 21.1 18.0 94 0.6 SSW 4 7 2 4 1001.4 1001.3 0.2
24/10:30am 18.8 20.3 18.0 95 0.5 SSW 7 9 4 5 1001.4 1001.3 0.0
24/10:00am 18.6 20.3 18.4 99 0.1 SSW 7 9 4 5 1001.4 1001.3 0.0
24/09:30am 18.3 19.8 18.1 99 0.1 SSW 7 7 4 4 1001.5 1001.4 0.0
24/09:00am 17.3 18.6 17.1 99 0.1 S 6 9 3 5 1001.8 1001.7 21.4
24/08:30am 17.7 19.9 17.5 99 0.1 E 2 7 1 4 1001.7 1001.6 21.0
24/08:00am 17.3 19.4 17.1 99 0.1 SSW 2 7 1 4 1001.9 1001.8 21.0
24/07:30am 17.0 19.3 16.8 99 0.1 CALM 0 0 0 0 1001.7 1001.6 21.0
24/07:00am 16.6 18.8 16.4 99 0.1 CALM 0 0 0 0 1001.7 1001.6 21.0
24/06:30am 16.3 18.0 16.1 99 0.1 NNE 2 7 1 4 1001.4 1001.3 21.0
24/06:00am 16.7 17.6 16.5 99 0.1 W 7 13 4 7 1001.2 1001.1 21.0
24/05:30am 16.6 17.0 16.4 99 0.1 SW 9 11 5 6 1001.4 1001.3 21.0
24/05:00am 16.6 17.4 16.4 99 0.1 S 7 9 4 5 1001.6 1001.5 21.0
24/04:30am 16.8 17.9 16.6 99 0.1 W 6 7 3 4 1001.8 1001.7 21.0
24/04:00am 16.6 17.0 16.4 99 0.1 SSW 9 13 5 7 1002.1 1002.0 21.0
24/03:30am 16.8 17.9 16.6 99 0.1 NW 6 13 3 7 1002.6 1002.5 21.0
24/03:00am 16.8 18.3 16.6 99 0.1 W 4 7 2 4 1002.6 1002.5 21.0
24/02:30am 16.6 17.6 16.4 99 0.1 S 6 9 3 5 1003.2 1003.2 21.0
24/02:00am 16.6 17.6 16.4 99 0.1 W 6 11 3 6 1004.2 1004.2 19.6
24/01:30am 16.7 17.8 16.5 99 0.1 NE 6 11 3 6 1004.3 1004.3 19.4
24/01:00am 16.7 17.6 16.5 99 0.1 NNE 7 11 4 6 1005.8 1005.8 18.8
24/12:30am 16.7 18.9 16.5 99 0.1 CALM 0 9 0 5 1005.6 1005.6 18.6
24/12:00am 16.7 18.9 16.5 99 0.1 CALM 0 0 0 0 1005.6 1005.6 18.6
 
Date/Time
EDT
Temp
°C
App
Temp
°C
Dew
Point
°C
Rel
Hum
%
Delta-T
°C
Wind Press
QNH
hPa
Press
MSL
hPa
Rain since
9am
mm
Dir  Spd
km/h
Gust
km/h
Spd
kts
Gust
kts
23/11:30pm 16.9 18.8 16.7 99 0.1 N 2 6 1 3 1006.0 1006.0 18.6
23/11:00pm 17.0 17.2 16.8 99 0.1 N 11 13 6 7 1007.1 1007.1 18.6
23/10:30pm 17.0 17.6 16.8 99 0.1 SE 9 15 5 8 1007.1 1007.1 18.6
23/10:00pm 17.2 18.3 17.0 99 0.1 NW 7 13 4 7 1008.8 1008.8 17.8
23/09:30pm 17.3 19.7 17.1 99 0.1 CALM 0 0 0 0 1008.6 1008.6 17.8
23/09:00pm 17.2 19.6 17.0 99 0.1 CALM 0 0 0 0 1008.8 1008.8 17.8
23/08:30pm 17.3 19.7 17.1 99 0.1 CALM 0 0 0 0 1008.9 1008.9 17.8
23/08:00pm 17.1 17.7 16.8 98 0.2 ESE 9 11 5 6 1008.6 1008.6 17.8
23/07:30pm 17.2 19.1 16.6 96 0.4 SW 2 6 1 3 1008.7 1008.7 17.8
23/07:00pm 17.5 19.3 16.5 94 0.6 SW 2 7 1 4 1008.8 1008.8 17.8
23/06:30pm 17.6 19.2 16.8 95 0.5 WNW 4 9 2 5 1008.7 1008.7 17.8
23/06:00pm 17.7 18.3 16.9 95 0.5 SSE 9 15 5 8 1008.7 1008.7 17.8
23/05:30pm 17.3 15.5 16.0 92 0.8 WSW 20 28 11 15 1009.0 1009.0 17.8
23/05:00pm 17.6 17.0 16.6 94 0.6 WSW 15 20 8 11 1008.2 1008.2 17.8
23/04:30pm 17.7 16.9 17.1 96 0.4 WSW 17 22 9 12 1008.1 1008.1 17.6
23/04:00pm 17.3 18.2 16.5 95 0.5 ENE 7 15 4 8 1008.4 1008.4 15.8
23/03:30pm 17.1 16.4 16.5 96 0.4 NNE 15 24 8 13 1008.9 1008.9 12.6
23/03:00pm 17.0 16.6 16.2 95 0.5 SSE 13 20 7 11 1009.8 1009.8 8.8
23/02:30pm 18.5 14.1 15.7 84 1.7 SSW 33 44 18 24 1009.1 1009.1 1.6
23/02:16pm 22.0 18.1 14.4 62 4.5 SSW 28 48 15 26 1008.9 1008.9 0.2
23/02:00pm 23.6 21.1 17.1 67 4.0 S 26 33 14 18 1008.4 1008.4 0.2
23/01:30pm 25.2 26.3 17.9 64 4.6 NE 9 24 5 13 1008.0 1008.0 0.2

Other formats

Comma delimited format used in spreadsheet applications
http://www.bom.gov.au/fwo/IDN60801/IDN60801.95931.axf

JavaScript Object Notation format (JSON) in row-major order
http://www.bom.gov.au/fwo/IDN60801/IDN60801.95931.json

Data quality

Most of these data are generated automatically and are frequently updated. Quality checks on data are not normally performed. It is possible for incorrect values to appear. Refer to information at About Latest Weather Observations and please check the disclaimer before using these data.